Time;durP1;ratioP1;P1;durP2;ratioP2;P2;SDS_P1;SDS_P2;PMS_P1;PMS_P2;Temp;Humidity;BMP_temperature;BMP_pressure;BME280_temperature;BME280_humidity;BME280_pressure;Samples;Min_cycle;Max_cycle;Signal;HPM_P1;HPM_P2
2023/04/01 00:00:59;;;;;;;7.25;4.15;;;;;;;5.12;100.00;97843.14;1799578;78;21025;-58
2023/04/01 00:03:30;;;;;;;5.28;3.72;;;;;;;5.05;100.00;97843.95;1798379;78;21028;-58
2023/04/01 00:05:56;;;;;;;6.45;4.30;;;;;;;5.00;100.00;97845.95;1798938;78;20962;-58
2023/04/01 00:08:23;;;;;;;33.33;5.37;;;;;;;4.99;100.00;97845.58;1800323;78;21029;-58
2023/04/01 00:10:50;;;;;;;4.20;3.33;;;;;;;4.97;100.00;97848.70;1803030;78;20984;-58
2023/04/01 00:13:16;;;;;;;8.60;3.67;;;;;;;4.93;100.00;97844.63;1796970;78;20902;-59
2023/04/01 00:15:43;;;;;;;8.45;4.03;;;;;;;4.92;100.00;97849.41;1797148;78;21033;-58
2023/04/01 00:18:10;;;;;;;6.53;3.60;;;;;;;4.88;100.00;97846.63;1799452;78;21053;-58
2023/04/01 00:20:36;;;;;;;6.45;3.50;;;;;;;4.84;100.00;97841.23;1796827;78;20933;-58
2023/04/01 00:23:03;;;;;;;7.60;4.58;;;;;;;4.77;100.00;97839.91;1795172;78;21072;-59
2023/04/01 00:25:29;;;;;;;5.20;3.45;;;;;;;4.70;100.00;97845.41;1790585;78;21077;-58
2023/04/01 00:27:55;;;;;;;6.37;3.22;;;;;;;4.65;100.00;97844.81;1797372;78;21061;-58
2023/04/01 00:30:22;;;;;;;3.47;3.02;;;;;;;4.59;100.00;97846.88;1795925;78;21087;-57
2023/04/01 00:32:53;;;;;;;3.33;3.02;;;;;;;4.52;100.00;97846.38;1798690;78;21061;-58
2023/04/01 00:35:20;;;;;;;3.10;2.72;;;;;;;4.47;100.00;97853.53;1797417;78;21069;-57
2023/04/01 00:37:47;;;;;;;3.15;2.85;;;;;;;4.39;99.98;97847.92;1797635;78;21034;-58
2023/04/01 00:40:32;;;;;;;2.95;2.65;;;;;;;4.33;100.00;97843.91;1799569;78;20981;-57
2023/04/01 00:42:59;;;;;;;3.85;3.45;;;;;;;4.30;100.00;97858.73;1777284;78;21048;-59
2023/04/01 00:45:35;;;;;;;3.50;2.98;;;;;;;4.29;100.00;97853.20;1797647;78;20997;-59
2023/04/01 00:48:05;;;;;;;3.02;2.45;;;;;;;4.25;100.00;97850.75;1797189;78;20962;-58
2023/04/01 00:50:33;;;;;;;11.48;3.60;;;;;;;4.21;100.00;97849.26;1749463;81;21568;-59
2023/04/01 00:53:01;;;;;;;12.70;3.08;;;;;;;4.22;100.00;97857.84;1794548;78;20947;-59
2023/04/01 00:55:30;;;;;;;11.38;2.92;;;;;;;4.17;100.00;97845.17;1791442;78;20961;-58
2023/04/01 00:57:58;;;;;;;3.83;3.42;;;;;;;4.16;100.00;97852.53;1795542;78;20994;-57
2023/04/01 01:00:26;;;;;;;6.05;2.67;;;;;;;4.11;100.00;97853.21;1805023;78;21663;-58
2023/04/01 01:02:52;;;;;;;5.35;3.33;;;;;;;4.09;100.00;97851.19;1799580;78;21048;-57
2023/04/01 01:05:22;;;;;;;4.45;3.30;;;;;;;4.02;100.00;97857.56;1799267;78;20942;-57
2023/04/01 01:07:55;;;;;;;3.67;3.37;;;;;;;4.03;100.00;97854.05;1800566;78;21026;-58
2023/04/01 01:10:37;;;;;;;3.10;2.77;;;;;;;4.03;100.00;97854.91;1789245;78;20998;-59
2023/04/01 01:13:28;;;;;;;3.10;2.80;;;;;;;4.00;100.00;97851.63;1797268;78;20982;-57
2023/04/01 01:16:24;;;;;;;3.15;2.85;;;;;;;4.00;100.00;97864.54;1724438;81;21486;-58
2023/04/01 01:19:00;;;;;;;2.90;2.60;;;;;;;3.98;100.00;97858.64;1664809;84;21017;-58
2023/04/01 01:21:45;;;;;;;3.15;2.85;;;;;;;3.95;100.00;97859.63;1669369;83;21146;-59
2023/04/01 01:24:37;;;;;;;3.65;3.25;;;;;;;3.88;99.86;97862.58;1669224;83;21094;-58
2023/04/01 01:27:10;;;;;;;3.30;2.87;;;;;;;3.81;99.88;97859.02;1669422;83;21049;-58
2023/04/01 01:29:43;;;;;;;10.05;3.50;;;;;;;3.78;99.92;97864.34;1668033;84;21039;-58
2023/04/01 01:32:27;;;;;;;3.15;2.70;;;;;;;3.77;100.00;97865.69;1668315;84;21061;-58
2023/04/01 01:35:06;;;;;;;3.72;3.37;;;;;;;3.79;100.00;97869.04;1666568;84;21057;-59
2023/04/01 01:37:33;;;;;;;7.72;3.20;;;;;;;3.84;100.00;97866.21;1657113;83;21037;-58
2023/04/01 01:40:03;;;;;;;4.35;2.83;;;;;;;3.87;100.00;97868.67;1668893;83;21088;-58
2023/04/01 01:42:32;;;;;;;3.37;3.08;;;;;;;3.84;100.00;97866.21;1680896;84;21551;-58
2023/04/01 01:45:02;;;;;;;3.70;3.20;;;;;;;3.77;99.83;97871.69;1664896;83;21100;-59
2023/04/01 01:47:30;;;;;;;16.32;3.50;;;;;;;3.73;100.00;97871.93;1695761;82;20951;-58
2023/04/01 01:49:58;;;;;;;3.12;2.60;;;;;;;3.72;100.00;97873.65;1758705;78;21075;-58
2023/04/01 01:52:26;;;;;;;5.53;3.30;;;;;;;3.73;100.00;97873.22;1793595;78;21429;-58
2023/04/01 01:54:56;;;;;;;4.03;3.52;;;;;;;3.73;100.00;97875.34;1799571;78;20997;-58
2023/04/01 01:57:29;;;;;;;4.65;3.50;;;;;;;3.66;99.80;97873.95;1796710;78;20993;-58
2023/04/01 01:59:59;;;;;;;3.60;2.70;;;;;;;3.61;99.89;97883.66;1791805;78;20962;-57
2023/04/01 02:02:27;;;;;;;7.72;3.58;;;;;;;3.59;99.94;97875.18;1799348;78;21044;-59
2023/04/01 02:04:54;;;;;;;5.83;2.83;;;;;;;3.59;100.00;97877.77;1800620;78;21512;-58
2023/04/01 02:07:27;;;;;;;4.10;3.02;;;;;;;3.60;100.00;97871.68;1806779;78;20942;-59
2023/04/01 02:09:54;;;;;;;3.50;3.20;;;;;;;3.62;100.00;97878.91;1800384;78;20951;-57
2023/04/01 02:12:23;;;;;;;3.85;3.35;;;;;;;3.68;100.00;97877.77;1796519;78;20946;-58
2023/04/01 02:14:53;;;;;;;3.92;3.60;;;;;;;3.72;100.00;97873.65;1793651;78;20994;-58
2023/04/01 02:17:22;;;;;;;3.50;3.20;;;;;;;3.72;100.00;97883.97;1798749;78;21022;-59
2023/04/01 02:19:58;;;;;;;3.40;3.10;;;;;;;3.72;100.00;97881.39;1795494;78;21029;-57
2023/04/01 02:22:37;;;;;;;17.62;3.55;;;;;;;3.67;100.00;97878.23;1798797;78;21033;-58
2023/04/01 02:25:11;;;;;;;3.50;3.20;;;;;;;3.68;100.00;97879.89;1798062;78;21032;-59
2023/04/01 02:27:39;;;;;;;4.28;3.35;;;;;;;3.66;100.00;97879.12;1798888;78;20996;-59
2023/04/01 02:30:07;;;;;;;5.20;3.17;;;;;;;3.68;100.00;97879.06;1799005;78;21025;-58
2023/04/01 02:32:37;;;;;;;17.50;3.47;;;;;;;3.72;100.00;97883.97;1798317;78;21052;-59
2023/04/01 02:35:07;;;;;;;3.37;3.08;;;;;;;3.70;100.00;97885.82;1797402;78;21126;-59
2023/04/01 02:37:34;;;;;;;3.08;2.77;;;;;;;3.67;100.00;97886.40;1796377;78;21132;-58
2023/04/01 02:40:07;;;;;;;3.22;3.00;;;;;;;3.68;100.00;97890.21;1801900;78;21021;-58
2023/04/01 02:42:34;;;;;;;3.22;2.77;;;;;;;3.73;100.00;97885.66;1800851;78;21128;-59
2023/04/01 02:45:00;;;;;;;4.70;2.95;;;;;;;3.75;100.00;97886.44;1798989;78;20983;-58
2023/04/01 02:47:26;;;;;;;3.60;3.20;;;;;;;3.73;100.00;97888.25;1796130;78;20989;-59
2023/04/01 02:49:58;;;;;;;3.17;2.55;;;;;;;3.76;100.00;97895.84;1798828;78;20938;-59
2023/04/01 02:52:20;;;;;;;8.63;2.70;;;;;;;3.78;100.00;97894.03;1799027;78;20962;-59
2023/04/01 02:54:47;;;;;;;3.58;3.27;;;;;;;3.83;100.00;97892.95;1799290;78;21073;-58
2023/04/01 02:57:13;;;;;;;3.40;3.10;;;;;;;3.84;100.00;97897.19;1799972;78;20954;-57
2023/04/01 02:59:39;;;;;;;3.10;2.80;;;;;;;3.80;100.00;97890.89;1799346;78;21009;-58
2023/04/01 03:02:06;;;;;;;4.62;2.85;;;;;;;3.85;100.00;97898.88;1800279;78;21663;-60
2023/04/01 03:04:33;;;;;;;3.90;3.40;;;;;;;3.85;100.00;97901.47;1797174;78;21560;-60
2023/04/01 03:06:59;;;;;;;3.72;3.37;;;;;;;3.87;100.00;97897.90;1799328;78;21024;-58
2023/04/01 03:09:25;;;;;;;3.87;3.47;;;;;;;3.86;100.00;97904.41;1801765;78;20942;-58
2023/04/01 03:11:51;;;;;;;3.77;3.33;;;;;;;3.79;100.00;97897.44;1798544;78;21021;-58
2023/04/01 03:14:18;;;;;;;4.53;3.50;;;;;;;3.83;100.00;97900.70;1800703;78;21066;-59
2023/04/01 03:16:44;;;;;;;6.83;2.92;;;;;;;3.88;100.00;97903.89;1801737;78;21036;-58
2023/04/01 03:19:10;;;;;;;3.52;3.22;;;;;;;3.90;100.00;97899.50;1795319;78;21127;-58
2023/04/01 03:21:38;;;;;;;4.45;3.40;;;;;;;3.92;100.00;97900.23;1797391;78;20928;-59
2023/04/01 03:24:05;;;;;;;;;;;;;;;3.95;100.00;97900.08;1794968;78;20981;-60
2023/04/01 03:26:31;;;;;;;3.75;3.35;;;;;;;4.00;100.00;97908.44;1773252;79;20165;-60
2023/04/01 03:28:57;;;;;;;3.58;3.27;;;;;;;3.98;100.00;97909.00;1766063;81;21020;-57
2023/04/01 03:31:24;;;;;;;5.92;3.20;;;;;;;4.01;100.00;97917.88;1783706;79;21008;-58
2023/04/01 03:33:51;;;;;;;5.42;4.20;;;;;;;4.00;100.00;97916.19;1800414;78;21539;-58
2023/04/01 03:36:17;;;;;;;2.62;2.42;;;;;;;4.02;100.00;97919.08;1798285;78;21456;-59
2023/04/01 03:38:48;;;;;;;3.67;3.37;;;;;;;4.02;100.00;97919.54;1794295;78;20986;-59
2023/04/01 03:41:16;;;;;;;3.40;3.10;;;;;;;4.04;100.00;97928.05;1797045;78;21423;-58
2023/04/01 03:43:43;;;;;;;4.05;3.65;;;;;;;4.07;100.00;97925.31;1790873;78;20903;-58
2023/04/01 03:46:10;;;;;;;3.40;3.10;;;;;;;4.09;100.00;97924.80;1801027;78;20986;-58
2023/04/01 03:48:36;;;;;;;3.52;3.22;;;;;;;4.09;100.00;97926.09;1797442;78;20992;-59
2023/04/01 03:51:07;;;;;;;3.45;2.95;;;;;;;4.09;100.00;97920.92;1793211;78;20939;-58
2023/04/01 03:53:33;;;;;;;3.33;3.05;;;;;;;4.10;100.00;97925.16;1788982;78;21065;-59
2023/04/01 03:56:05;;;;;;;3.87;3.47;;;;;;;4.03;100.00;97927.66;1796124;78;21041;-58
2023/04/01 03:58:31;;;;;;;9.63;2.80;;;;;;;4.03;100.00;97928.95;1794162;78;21422;-58
2023/04/01 04:00:57;;;;;;;4.53;2.45;;;;;;;3.98;100.00;97923.20;1785656;78;20982;-59
2023/04/01 04:03:23;;;;;;;3.87;2.50;;;;;;;3.99;100.00;97929.56;1792525;78;21010;-58
2023/04/01 04:05:50;;;;;;;9.65;2.45;;;;;;;3.97;100.00;97925.38;1800401;78;20934;-58
2023/04/01 04:08:17;;;;;;;2.87;2.40;;;;;;;3.95;100.00;97925.91;1799092;78;20993;-59
2023/04/01 04:10:43;;;;;;;2.80;2.60;;;;;;;3.96;100.00;97935.34;1791300;78;20942;-59
2023/04/01 04:13:10;;;;;;;2.58;2.35;;;;;;;3.99;100.00;97937.77;1798328;78;21039;-58
2023/04/01 04:15:36;;;;;;;2.72;2.50;;;;;;;4.04;100.00;97940.97;1798710;78;21021;-58
2023/04/01 04:18:02;;;;;;;2.95;2.72;;;;;;;4.08;100.00;97938.59;1795010;78;21026;-58
2023/04/01 04:20:29;;;;;;;3.17;2.87;;;;;;;4.07;100.00;97941.27;1798331;78;21057;-58
2023/04/01 04:22:55;;;;;;;2.98;2.67;;;;;;;4.08;100.00;97942.47;1792438;78;21540;-58
2023/04/01 04:25:21;;;;;;;10.80;3.05;;;;;;;4.07;100.00;97942.11;1794432;78;20990;-58
2023/04/01 04:27:47;;;;;;;5.08;4.00;;;;;;;4.06;100.00;97941.70;1793447;78;21429;-58
2023/04/01 04:30:15;;;;;;;4.92;3.75;;;;;;;4.05;100.00;97936.17;1795876;78;20994;-59
2023/04/01 04:32:41;;;;;;;4.72;4.12;;;;;;;4.06;100.00;97945.58;1805371;78;21057;-59
2023/04/01 04:35:09;;;;;;;9.33;3.83;;;;;;;4.10;100.00;97941.95;1803211;78;21037;-58
2023/04/01 04:37:35;;;;;;;;;;;;;;;4.11;100.00;97944.91;1771791;78;21759;-58
2023/04/01 04:40:01;;;;;;;15.23;5.70;;;;;;;4.07;100.00;97944.69;1753065;79;20188;-58
2023/04/01 04:42:28;;;;;;;4.17;2.62;;;;;;;4.02;100.00;97947.95;1766872;79;21037;-59
2023/04/01 04:44:54;;;;;;;4.30;2.15;;;;;;;4.05;100.00;97950.37;1727772;81;21013;-57
2023/04/01 04:47:20;;;;;;;32.42;2.17;;;;;;;3.99;100.00;97951.52;1753261;80;21060;-58
2023/04/01 04:49:47;;;;;;;3.67;1.72;;;;;;;3.98;100.00;97943.86;1769859;80;20966;-58
2023/04/01 04:52:13;;;;;;;19.42;2.20;;;;;;;3.90;100.00;97945.98;1734650;81;20966;-58
2023/04/01 04:54:39;;;;;;;17.10;2.70;;;;;;;3.86;100.00;97946.55;1763954;79;21101;-59
2023/04/01 04:57:06;;;;;;;22.07;3.58;;;;;;;3.83;100.00;97952.33;1735830;81;21041;-58
2023/04/01 04:59:32;;;;;;;8.43;3.55;;;;;;;3.87;100.00;97936.63;1761087;80;21466;-58
2023/04/01 05:01:58;;;;;;;12.78;2.47;;;;;;;3.85;100.00;97953.09;1761196;80;21508;-58
2023/04/01 05:04:24;;;;;;;7.03;2.00;;;;;;;3.87;100.00;97952.58;1756913;80;21606;-58
2023/04/01 05:06:51;;;;;;;16.25;2.25;;;;;;;3.90;100.00;97949.84;1752286;80;21612;-58
2023/04/01 05:09:18;;;;;;;2.25;1.92;;;;;;;3.91;100.00;97960.55;1764801;79;21537;-59
2023/04/01 05:11:44;;;;;;;2.42;2.17;;;;;;;3.93;100.00;97961.31;1732011;81;21533;-58
2023/04/01 05:14:16;;;;;;;2.30;2.05;;;;;;;3.99;100.00;97958.43;1765575;80;21022;-57
2023/04/01 05:16:42;;;;;;;4.70;2.20;;;;;;;4.06;100.00;97961.53;1765033;79;21149;-58
2023/04/01 05:19:08;;;;;;;2.77;2.02;;;;;;;4.09;100.00;97964.83;1762936;79;21641;-58
2023/04/01 05:21:34;;;;;;;12.00;1.95;;;;;;;4.05;100.00;97967.16;1765600;79;21025;-58
2023/04/01 05:24:00;;;;;;;12.75;2.98;;;;;;;4.04;100.00;97969.38;1759153;79;20970;-58
2023/04/01 05:26:27;;;;;;;6.78;2.15;;;;;;;4.04;100.00;97976.66;1730621;81;21083;-58
2023/04/01 05:28:53;;;;;;;3.02;2.27;;;;;;;4.05;100.00;97971.03;1757894;80;20938;-58
2023/04/01 05:31:19;;;;;;;3.33;2.27;;;;;;;4.05;100.00;97977.49;1763190;80;21069;-59
2023/04/01 05:33:45;;;;;;;3.30;2.55;;;;;;;4.04;100.00;97974.55;1754370;79;20998;-57
2023/04/01 05:36:15;;;;;;;2.62;2.30;;;;;;;4.09;100.00;97977.74;1767938;78;21101;-59
2023/04/01 05:38:47;;;;;;;6.28;2.30;;;;;;;4.16;100.00;97980.39;1797866;78;20950;-58
2023/04/01 05:41:10;;;;;;;3.15;2.40;;;;;;;4.15;100.00;97981.31;1793006;78;21457;-58
2023/04/01 05:43:38;;;;;;;2.60;2.40;;;;;;;4.17;100.00;97993.70;1798979;78;21132;-59
2023/04/01 05:46:04;;;;;;;;;;;;;;;4.10;100.00;97988.44;1770192;79;21596;-59
2023/04/01 05:48:30;;;;;;;4.05;1.50;;;;;;;4.04;100.00;97979.70;1768266;79;20157;-59
2023/04/01 05:50:56;;;;;;;6.55;1.67;;;;;;;3.91;100.00;97996.69;1766059;79;21015;-59
2023/04/01 05:53:25;;;;;;;8.98;1.77;;;;;;;3.93;100.00;98000.05;1767781;79;20995;-59
2023/04/01 05:55:55;;;;;;;2.45;2.10;;;;;;;4.00;100.00;97998.83;1772158;79;21141;-59
2023/04/01 05:58:21;;;;;;;2.42;1.62;;;;;;;4.10;100.00;97999.23;1777237;78;21017;-59
2023/04/01 06:00:48;;;;;;;1.55;1.45;;;;;;;4.14;100.00;98004.16;1767044;79;21556;-59
2023/04/01 06:03:15;;;;;;;1.50;1.40;;;;;;;4.19;100.00;97999.61;1776325;79;21486;-59
2023/04/01 06:05:43;;;;;;;1.40;1.30;;;;;;;4.24;100.00;98009.73;1771509;78;20933;-59
2023/04/01 06:08:15;;;;;;;1.32;1.17;;;;;;;4.28;100.00;98003.95;1767422;79;21485;-58
2023/04/01 06:10:59;;;;;;;1.42;1.27;;;;;;;4.33;100.00;98008.44;1767616;79;21530;-58
2023/04/01 06:13:45;;;;;;;1.20;1.10;;;;;;;4.35;100.00;98014.38;1770067;79;20974;-59
2023/04/01 06:16:21;;;;;;;1.70;1.35;;;;;;;4.39;100.00;98010.72;1768434;79;20952;-59
2023/04/01 06:19:18;;;;;;;1.50;1.10;;;;;;;4.42;100.00;98022.19;1758918;79;21022;-58
2023/04/01 06:22:08;;;;;;;1.87;1.40;;;;;;;4.42;100.00;98019.14;1673184;84;21050;-60
2023/04/01 06:24:47;;;;;;;2.00;1.32;;;;;;;4.43;100.00;98020.00;1673365;84;21092;-59
2023/04/01 06:27:39;;;;;;;2.37;1.40;;;;;;;4.32;100.00;98027.45;1710558;82;21069;-60
2023/04/01 06:30:32;;;;;;;1.32;0.90;;;;;;;4.21;100.00;98023.62;1697494;82;21018;-59
2023/04/01 06:33:18;;;;;;;2.40;1.40;;;;;;;4.18;100.00;98037.98;1697822;82;20993;-59
2023/04/01 06:36:06;;;;;;;3.10;2.00;;;;;;;4.06;100.00;98034.69;1716437;82;21702;-59
2023/04/01 06:38:57;;;;;;;3.27;1.90;;;;;;;4.07;100.00;98041.54;1702121;82;21083;-58
2023/04/01 06:41:30;;;;;;;1.70;1.32;;;;;;;4.06;100.00;98033.85;1708166;82;21496;-59
2023/04/01 06:44:18;;;;;;;1.65;1.20;;;;;;;4.07;100.00;98046.70;1672677;83;21500;-60
2023/04/01 06:47:20;;;;;;;1.55;1.27;;;;;;;3.98;100.00;98043.28;1687133;83;21057;-60
2023/04/01 06:50:02;;;;;;;1.77;1.40;;;;;;;4.00;100.00;98050.47;1678340;83;20992;-59
2023/04/01 06:52:49;;;;;;;3.27;1.27;;;;;;;4.01;100.00;98052.17;1698215;82;21053;-60
2023/04/01 06:55:22;;;;;;;2.15;1.25;;;;;;;4.06;100.00;98059.68;1699371;82;21540;-60
2023/04/01 06:57:51;;;;;;;2.08;1.27;;;;;;;4.05;100.00;98062.72;1772938;78;20938;-60
2023/04/01 07:00:33;;;;;;;2.25;1.00;;;;;;;4.02;100.00;98066.74;1800763;78;21003;-59
2023/04/01 07:03:18;;;;;;;1.10;1.00;;;;;;;4.01;100.00;98070.25;1813307;78;21546;-59
2023/04/01 07:05:45;;;;;;;1.30;1.05;;;;;;;4.01;100.00;98065.08;1801241;78;21512;-61
2023/04/01 07:08:24;;;;;;;1.62;1.22;;;;;;;3.88;100.00;98075.59;1800063;78;20926;-59
2023/04/01 07:10:54;;;;;;;1.82;1.20;;;;;;;3.85;100.00;98071.87;1811235;78;21025;-60
2023/04/01 07:13:27;;;;;;;1.72;1.20;;;;;;;3.83;100.00;98091.75;1807660;78;21028;-60
2023/04/01 07:16:17;;;;;;;3.90;2.67;;;;;;;3.73;100.00;98088.77;1798838;78;21532;-60
2023/04/01 07:18:58;;;;;;;4.55;4.00;;;;;;;3.75;100.00;98091.66;1800710;78;21021;-58
2023/04/01 07:21:37;;;;;;;2.50;1.37;;;;;;;3.80;100.00;98096.13;1794415;78;21031;-58
2023/04/01 07:24:13;;;;;;;2.87;1.80;;;;;;;3.84;100.00;98096.85;1761900;79;21060;-58
2023/04/01 07:26:40;;;;;;;1.57;1.25;;;;;;;3.75;100.00;98094.24;1772505;79;21684;-58
2023/04/01 07:29:21;;;;;;;1.20;1.10;;;;;;;3.66;100.00;98097.22;1766766;79;20958;-58
2023/04/01 07:32:00;;;;;;;7.25;1.80;;;;;;;3.62;100.00;98095.69;1775159;79;21092;-58
2023/04/01 07:34:30;;;;;;;3.45;1.45;;;;;;;3.43;100.00;98099.54;1789347;78;20942;-58
2023/04/01 07:37:12;;;;;;;2.65;1.40;;;;;;;3.45;100.00;98104.65;1786801;79;21085;-58
2023/04/01 07:39:57;;;;;;;1.90;1.52;;;;;;;3.47;100.00;98105.39;1790970;78;21108;-57
2023/04/01 07:42:33;;;;;;;2.27;1.60;;;;;;;3.50;100.00;98110.42;1793003;78;21097;-59
2023/04/01 07:45:06;;;;;;;3.60;2.30;;;;;;;3.46;100.00;98119.22;1792376;78;21033;-58
2023/04/01 07:47:52;;;;;;;2.90;2.25;;;;;;;3.44;100.00;98119.27;1795733;78;21025;-59
2023/04/01 07:50:31;;;;;;;5.90;1.77;;;;;;;3.55;100.00;98122.67;1803823;78;21074;-58
2023/04/01 07:53:10;;;;;;;2.25;1.70;;;;;;;3.63;100.00;98125.75;1798489;78;21515;-58
2023/04/01 07:56:04;;;;;;;2.80;1.57;;;;;;;3.60;100.00;98136.21;1739853;81;21034;-58
2023/04/01 07:58:43;;;;;;;2.50;1.55;;;;;;;3.61;100.00;98139.16;1736502;81;21085;-58
2023/04/01 08:01:25;;;;;;;2.98;1.92;;;;;;;3.58;100.00;98143.17;1733370;81;21606;-58
2023/04/01 08:04:20;;;;;;;1.60;1.42;;;;;;;3.60;100.00;98147.83;1736746;81;21157;-58
2023/04/01 08:07:11;;;;;;;2.60;1.60;;;;;;;3.53;100.00;98148.56;1740738;81;21337;-59
2023/04/01 08:09:41;;;;;;;2.75;1.50;;;;;;;3.55;100.00;98143.31;1736292;81;21100;-58
2023/04/01 08:12:22;;;;;;;1.95;1.60;;;;;;;3.47;100.00;98157.83;1732607;81;21037;-58
2023/04/01 08:15:01;;;;;;;2.62;1.50;;;;;;;3.50;100.00;98154.28;1738614;81;21115;-59
2023/04/01 08:17:40;;;;;;;1.67;1.42;;;;;;;3.42;100.00;98158.94;1738308;81;21018;-58
2023/04/01 08:20:25;;;;;;;3.55;1.85;;;;;;;3.52;100.00;98155.06;1741407;80;21046;-58
2023/04/01 08:23:01;;;;;;;2.92;1.50;;;;;;;3.68;100.00;98163.81;1736749;81;21185;-58
2023/04/01 08:25:30;;;;;;;2.65;1.80;;;;;;;3.79;100.00;98164.17;1737578;80;21025;-59
2023/04/01 08:28:17;;;;;;;2.62;1.40;;;;;;;3.89;100.00;98163.75;1733514;81;21045;-58
2023/04/01 08:30:49;;;;;;;1.97;1.13;;;;;;;4.05;100.00;98168.61;1740275;80;21041;-58
2023/04/01 08:33:26;;;;;;;1.87;1.22;;;;;;;3.94;100.00;98176.84;1777148;78;21457;-58
2023/04/01 08:35:59;;;;;;;2.20;1.50;;;;;;;3.97;100.00;98170.25;1797203;78;21104;-58
2023/04/01 08:38:28;;;;;;;3.35;2.35;;;;;;;4.00;100.00;98179.60;1794612;78;21647;-59
2023/04/01 08:41:00;;;;;;;2.85;1.90;;;;;;;4.12;100.00;98181.65;1796925;78;21609;-58
2023/04/01 08:43:33;;;;;;;2.92;2.10;;;;;;;4.15;100.00;98186.67;1796514;78;21088;-59
2023/04/01 08:46:11;;;;;;;5.08;3.15;;;;;;;4.22;100.00;98193.22;1801518;78;21539;-59
2023/04/01 08:48:56;;;;;;;2.15;1.35;;;;;;;4.26;100.00;98192.18;1800159;78;21001;-58
2023/04/01 08:51:34;;;;;;;1.87;1.40;;;;;;;4.25;100.00;98198.23;1794495;78;20985;-58
2023/04/01 08:54:33;;;;;;;1.75;0.98;;;;;;;4.25;100.00;98203.41;1794818;78;21084;-58
2023/04/01 08:57:27;;;;;;;2.37;1.10;;;;;;;4.13;100.00;98205.27;1795851;78;21076;-58
2023/04/01 09:00:06;;;;;;;2.17;1.20;;;;;;;4.09;100.00;98203.74;1799135;78;21551;-58
2023/04/01 09:02:36;;;;;;;1.80;1.30;;;;;;;4.17;100.00;98210.70;1791252;78;20958;-58
2023/04/01 09:05:34;;;;;;;1.65;1.25;;;;;;;4.17;100.00;98214.58;1772735;78;21068;-58
2023/04/01 09:08:32;;;;;;;1.42;1.05;;;;;;;4.31;100.00;98211.79;1779662;79;20973;-59
2023/04/01 09:11:23;;;;;;;1.87;1.22;;;;;;;4.35;100.00;98220.63;1735880;81;21016;-58
2023/04/01 09:13:55;;;;;;;1.35;0.78;;;;;;;4.43;100.00;98217.24;1792150;78;21021;-59
2023/04/01 09:16:54;;;;;;;2.40;1.00;;;;;;;4.52;100.00;98221.14;1791683;78;21002;-58
2023/04/01 09:19:53;;;;;;;5.08;4.40;;;;;;;4.56;100.00;98220.08;1801245;78;21048;-58
2023/04/01 09:22:35;;;;;;;7.25;6.05;;;;;;;4.62;100.00;98222.41;1795093;78;20981;-59
2023/04/01 09:25:20;;;;;;;2.67;1.90;;;;;;;4.81;100.00;98226.69;1800764;78;20907;-58
2023/04/01 09:28:16;;;;;;;1.80;1.12;;;;;;;5.04;100.00;98229.02;1791473;78;21067;-58
2023/04/01 09:30:56;;;;;;;6.08;4.62;;;;;;;5.15;100.00;98228.04;1783458;78;21485;-58
2023/04/01 09:33:38;;;;;;;1.52;1.00;;;;;;;5.11;100.00;98230.84;1797411;78;21120;-58
2023/04/01 09:36:24;;;;;;;1.05;0.75;;;;;;;5.02;99.97;98241.18;1794728;78;21580;-58
2023/04/01 09:39:26;;;;;;;2.87;0.78;;;;;;;5.13;100.00;98236.33;1784763;78;21171;-58
2023/04/01 09:42:03;;;;;;;1.00;0.80;;;;;;;5.29;100.00;98242.02;1789306;79;21065;-58
2023/04/01 09:44:41;;;;;;;0.98;0.80;;;;;;;5.37;100.00;98246.37;1761882;79;21500;-58
2023/04/01 09:47:30;;;;;;;1.12;0.70;;;;;;;5.40;100.00;98250.09;1739057;79;21033;-58
2023/04/01 09:50:10;;;;;;;1.07;0.90;;;;;;;5.41;100.00;98260.85;1780309;80;21635;-58
2023/04/01 09:52:53;;;;;;;2.87;1.65;;;;;;;5.30;100.00;98250.19;1778060;79;20999;-58
2023/04/01 09:55:45;;;;;;;1.92;1.22;;;;;;;5.06;100.00;98258.22;1788431;79;21846;-58
2023/04/01 09:58:29;;;;;;;1.82;0.70;;;;;;;5.14;100.00;98254.80;1790945;79;20998;-58
2023/04/01 10:01:23;;;;;;;2.00;1.20;;;;;;;5.10;100.00;98270.11;1789371;79;21544;-58
2023/04/01 10:04:14;;;;;;;1.80;0.90;;;;;;;4.90;99.93;98267.62;1788998;79;21084;-58
2023/04/01 10:06:54;;;;;;;1.85;0.95;;;;;;;4.77;100.00;98271.72;1765444;79;21048;-59
2023/04/01 10:09:52;;;;;;;1.92;1.32;;;;;;;4.63;100.00;98283.53;1787747;79;20997;-58
2023/04/01 10:12:40;;;;;;;2.22;1.22;;;;;;;4.54;100.00;98276.20;1790308;79;21001;-58
2023/04/01 10:15:29;;;;;;;1.82;0.98;;;;;;;4.53;100.00;98286.14;1792102;79;20990;-58
2023/04/01 10:18:21;;;;;;;1.72;0.80;;;;;;;4.56;100.00;98287.28;1790748;79;21500;-58
2023/04/01 10:21:18;;;;;;;1.30;0.88;;;;;;;4.49;100.00;98285.91;1788667;79;21013;-58
2023/04/01 10:24:17;;;;;;;2.70;1.70;;;;;;;4.30;100.00;98294.10;1795131;79;21003;-59
2023/04/01 10:27:22;;;;;;;2.15;1.20;;;;;;;4.40;100.00;98296.67;1783763;79;21425;-59
2023/04/01 10:30:25;;;;;;;1.92;1.37;;;;;;;4.36;100.00;98295.95;1781055;79;21018;-59
2023/04/01 10:33:04;;;;;;;1.80;1.00;;;;;;;4.30;100.00;98305.73;1782761;79;20911;-59
2023/04/01 10:35:50;;;;;;;1.50;0.82;;;;;;;4.43;100.00;98301.70;1783132;79;20955;-59
2023/04/01 10:38:37;;;;;;;2.27;1.05;;;;;;;4.48;100.00;98294.55;1774088;79;20988;-58
2023/04/01 10:41:19;;;;;;;3.40;1.57;;;;;;;4.41;100.00;98309.50;1750333;80;20993;-58
2023/04/01 10:43:57;;;;;;;3.00;1.20;;;;;;;4.45;100.00;98306.32;1733904;80;21512;-59
2023/04/01 10:46:50;;;;;;;2.08;1.22;;;;;;;4.52;100.00;98307.73;1744660;81;21041;-59
2023/04/01 10:49:43;;;;;;;2.17;1.35;;;;;;;4.54;100.00;98314.98;1743667;81;21034;-59
2023/04/01 10:52:36;;;;;;;2.50;1.50;;;;;;;4.39;99.06;98307.89;1748808;81;21609;-59
2023/04/01 10:55:15;;;;;;;3.08;1.37;;;;;;;4.31;99.94;98325.48;1741595;81;20993;-58
2023/04/01 10:57:54;;;;;;;4.72;1.45;;;;;;;4.30;100.00;98321.23;1694727;82;20999;-59
2023/04/01 11:00:27;;;;;;;2.30;1.30;;;;;;;4.30;100.00;98327.23;1681907;83;21017;-58
2023/04/01 11:03:29;;;;;;;1.72;1.10;;;;;;;4.29;100.00;98318.27;1683913;84;20986;-59
2023/04/01 11:06:14;;;;;;;2.12;1.02;;;;;;;4.21;99.90;98331.06;1681670;84;21057;-59
2023/04/01 11:09:09;;;;;;;2.02;1.20;;;;;;;4.26;100.00;98338.63;1687292;83;20991;-58
2023/04/01 11:11:53;;;;;;;2.30;1.07;;;;;;;4.23;100.00;98347.34;1675398;84;21033;-59
2023/04/01 11:14:40;;;;;;;4.12;1.20;;;;;;;4.25;100.00;98335.17;1680419;84;22266;-58
2023/04/01 11:17:10;;;;;;;1.82;0.95;;;;;;;4.23;100.00;98347.34;1691201;84;21071;-59
2023/04/01 11:19:45;;;;;;;1.07;0.68;;;;;;;4.38;100.00;98350.16;1685406;84;21012;-59
2023/04/01 11:22:24;;;;;;;1.37;0.78;;;;;;;4.50;100.00;98339.27;1679016;84;21067;-60
2023/04/01 11:25:10;;;;;;;1.17;0.70;;;;;;;4.55;100.00;98355.41;1679118;83;21037;-59
2023/04/01 11:27:49;;;;;;;1.32;0.57;;;;;;;4.55;100.00;98354.58;1684422;84;21047;-59
2023/04/01 11:30:29;;;;;;;1.22;0.60;;;;;;;4.53;100.00;98352.05;1680875;84;21045;-59
2023/04/01 11:33:14;;;;;;;3.20;0.78;;;;;;;4.30;99.93;98361.28;1659877;84;21573;-59
2023/04/01 11:35:55;;;;;;;1.90;0.70;;;;;;;4.26;100.00;98360.13;1775518;79;21459;-59
2023/04/01 11:38:37;;;;;;;1.77;0.93;;;;;;;4.22;100.00;98366.31;1771933;79;21065;-59
2023/04/01 11:41:10;;;;;;;1.00;0.75;;;;;;;4.18;99.78;98375.12;1751677;81;21016;-59
2023/04/01 11:43:45;;;;;;;0.90;0.70;;;;;;;4.15;99.75;98370.09;1792650;78;21544;-59
2023/04/01 11:46:21;;;;;;;1.85;1.20;;;;;;;4.16;100.00;98376.92;1796350;78;21017;-59
2023/04/01 11:49:00;;;;;;;2.30;1.47;;;;;;;4.09;99.89;98379.39;1796162;78;20977;-59
2023/04/01 11:51:38;;;;;;;3.02;1.20;;;;;;;4.03;100.00;98388.66;1799562;78;21001;-58
2023/04/01 11:54:25;;;;;;;2.75;1.00;;;;;;;4.05;100.00;98388.16;1792991;78;21126;-59
2023/04/01 11:57:01;;;;;;;1.92;1.50;;;;;;;4.03;100.00;98391.25;1801309;78;20962;-59
2023/04/01 12:00:05;;;;;;;2.20;1.40;;;;;;;4.10;100.00;98395.27;1797383;78;21018;-59
2023/04/01 12:02:53;;;;;;;0.85;0.80;;;;;;;3.98;99.87;98403.54;1792887;78;20972;-60
2023/04/01 12:05:32;;;;;;;2.52;1.15;;;;;;;4.07;100.00;98397.98;1798140;78;21041;-59
2023/04/01 12:08:24;;;;;;;2.05;1.10;;;;;;;3.92;99.83;98403.77;1795085;78;21526;-59
2023/04/01 12:11:17;;;;;;;1.45;0.78;;;;;;;3.98;100.00;98407.41;1796115;78;20946;-59
2023/04/01 12:13:47;;;;;;;3.22;1.62;;;;;;;3.88;99.91;98410.81;1799379;78;21421;-59